Talmoon, Minnesota
Current Conditions -  °F | °C
As of 6:13 PM on Friday 24 Oct 2014 (Local Time) from KFOZ Reporting Station
Clear Clear  
Wind Chill: 64°   Ceiling: Unl
Heat Index: 64°   Visibility: 10mi
Dew Point: 39°   Wind: 8mph
Humidity: 40%   Direction: 250°WSW
Pressure: 29.73"   Gusts: NA
Location:  47.6°N, 93.77°W
Report Text: KFOZ 242313Z AUTO 25007KT 10SM CLR 18/04 A2973 RMK AO2 TSNO
Loading
Personal Weather Stations






























Interactive Weather Map
Tropical Storm Tracking
New forecast layout! Learn more

10-Day Weather Forecast

Advertisements
Track Severe Weather on mobile